createdAt,value
2018-01-12T00:02:00.838Z,48.60
2018-01-12T00:04:29.880Z,62.05
2018-01-12T00:09:44.236Z,72.73
2018-01-12T00:12:13.263Z,52.67
2018-01-12T00:14:46.234Z,65.85
2018-01-12T00:17:15.345Z,56.07
2018-01-12T00:22:21.554Z,57.53
2018-01-12T00:24:54.422Z,58.83
2018-01-12T00:27:23.758Z,48.70
2018-01-12T00:30:00.371Z,50.47
2018-01-12T00:32:29.515Z,48.40
2018-01-12T00:34:59.474Z,52.30
2018-01-12T00:37:28.618Z,51.03
2018-01-12T00:39:57.674Z,59.45
2018-01-12T00:42:26.864Z,53.23
2018-01-12T00:44:57.126Z,68.43
2018-01-12T00:47:26.293Z,61.40
2018-01-12T00:49:55.394Z,47.60
2018-01-12T00:52:24.454Z,63.00
2018-01-12T00:55:07.073Z,47.43
2018-01-12T01:00:14.442Z,58.70
2018-01-12T01:02:47.986Z,50.97
2018-01-12T01:05:17.436Z,53.03
2018-01-12T01:07:46.461Z,47.17
2018-01-12T01:10:16.657Z,61.25
2018-01-12T01:15:20.712Z,56.63
2018-01-12T01:17:51.443Z,35.40
2018-01-12T01:20:20.866Z,32.13
2018-01-12T01:22:50.205Z,33.50
2018-01-12T01:25:19.253Z,42.67
2018-01-12T01:27:48.317Z,51.80
2018-01-12T01:30:17.454Z,39.00
2018-01-12T01:32:46.759Z,50.12
2018-01-12T01:35:15.801Z,52.27
2018-01-12T01:37:56.742Z,38.23
2018-01-12T01:40:25.790Z,45.05
2018-01-12T01:45:32.972Z,47.90
2018-01-12T01:48:02.950Z,36.00
2018-01-12T01:50:31.990Z,41.22
2018-01-12T01:55:46.417Z,43.15
2018-01-12T01:58:15.465Z,34.27
2018-01-12T02:00:48.102Z,28.27
2018-01-12T02:03:17.145Z,27.70
2018-01-12T02:08:21.218Z,37.58
2018-01-12T02:10:50.259Z,39.47
2018-01-12T02:13:19.304Z,34.40
2018-01-12T02:15:48.353Z,29.23
2018-01-12T02:18:17.397Z,38.63
2018-01-12T02:20:46.438Z,33.57
2018-01-12T02:23:15.574Z,32.20
2018-01-12T02:25:48.313Z,36.17
2018-01-12T02:28:17.382Z,29.73
2018-01-12T02:33:31.143Z,35.10
2018-01-12T02:36:03.854Z,31.73
2018-01-12T02:38:32.905Z,31.80
2018-01-12T02:41:01.944Z,29.20
2018-01-12T02:43:30.986Z,29.98
2018-01-12T02:46:14.650Z,27.90
2018-01-12T02:48:43.690Z,20.10
2018-01-12T02:51:12.729Z,28.73
2018-01-12T02:53:41.771Z,31.40
2018-01-12T02:56:10.817Z,30.40
2018-01-12T02:58:39.875Z,22.93
2018-01-12T03:01:08.910Z,25.47
2018-01-12T03:03:37.962Z,25.57
2018-01-12T03:06:07.014Z,32.55
2018-01-12T03:08:36.058Z,27.33
2018-01-12T03:11:05.106Z,28.70
2018-01-12T03:16:16.249Z,36.40
2018-01-12T03:18:45.298Z,31.93
2018-01-12T03:21:19.991Z,30.67
2018-01-12T03:23:49.075Z,33.53
2018-01-12T03:26:22.572Z,33.27
2018-01-12T03:28:51.584Z,40.22
2018-01-12T03:31:20.634Z,32.10
2018-01-12T03:33:49.687Z,28.63
2018-01-12T03:36:19.688Z,35.75
2018-01-12T03:38:48.730Z,28.73
2018-01-12T03:41:24.513Z,21.80
2018-01-12T03:43:53.563Z,37.25
2018-01-12T03:46:26.808Z,38.97
2018-01-12T03:48:56.847Z,31.03
2018-01-12T03:54:07.221Z,39.60
2018-01-12T03:59:11.601Z,41.90
2018-01-12T04:01:40.644Z,36.23
2018-01-12T04:04:09.699Z,43.38
2018-01-12T04:06:39.082Z,46.28
2018-01-12T04:09:08.162Z,36.00
2018-01-12T04:11:38.121Z,39.07
2018-01-12T04:14:21.104Z,50.70
2018-01-12T04:16:53.493Z,40.77
2018-01-12T04:22:06.410Z,40.25
2018-01-12T04:24:40.235Z,34.67
2018-01-12T04:27:09.394Z,35.17
2018-01-12T04:29:43.335Z,37.10
2018-01-12T04:32:12.363Z,33.50
2018-01-12T04:34:41.438Z,30.73
2018-01-12T04:37:10.537Z,35.22
2018-01-12T04:39:39.604Z,31.30
2018-01-12T04:42:08.651Z,35.35
2018-01-12T04:44:40.666Z,32.43
2018-01-12T04:47:09.723Z,28.37
2018-01-12T04:49:38.805Z,32.10
2018-01-12T04:52:09.806Z,31.13
2018-01-12T04:54:39.878Z,32.28
2018-01-12T04:57:08.931Z,34.83
2018-01-12T04:59:48.847Z,25.30
2018-01-12T05:02:17.918Z,24.40
2018-01-12T05:07:30.230Z,31.00
2018-01-12T05:10:00.182Z,27.10
2018-01-12T05:12:30.178Z,23.10
2018-01-12T05:15:00.191Z,23.03
2018-01-12T05:17:48.739Z,22.47
2018-01-12T05:20:17.814Z,25.33
2018-01-12T05:22:46.855Z,26.77
2018-01-12T05:25:15.898Z,27.87
2018-01-12T05:27:58.849Z,28.53
2018-01-12T05:30:27.894Z,27.98
2018-01-12T05:33:00.728Z,25.60
2018-01-12T05:38:05.015Z,29.27
2018-01-12T05:40:34.050Z,28.83
2018-01-12T05:43:03.126Z,31.08
2018-01-12T05:45:32.206Z,30.83
2018-01-12T05:48:14.999Z,27.20
2018-01-12T05:50:45.010Z,28.00
2018-01-12T05:53:21.973Z,29.40
2018-01-12T05:58:29.159Z,28.73
2018-01-12T06:01:15.930Z,25.73
2018-01-12T06:04:03.911Z,23.40
2018-01-12T06:06:32.969Z,25.50
2018-01-12T06:09:02.938Z,23.90
2018-01-12T06:11:32.002Z,25.73
2018-01-12T06:14:01.033Z,21.80
2018-01-12T06:16:30.083Z,25.63
2018-01-12T06:21:38.302Z,30.20
2018-01-12T06:24:18.534Z,27.10
2018-01-12T06:26:49.558Z,27.37
2018-01-12T06:29:22.070Z,30.67
2018-01-12T06:32:04.280Z,28.48
2018-01-12T06:34:33.310Z,30.30
2018-01-12T06:39:50.157Z,34.10
2018-01-12T06:42:27.372Z,29.20
2018-01-12T06:45:00.979Z,22.83
2018-01-12T06:47:30.020Z,28.23
2018-01-12T06:49:59.061Z,27.63
2018-01-12T06:52:28.105Z,29.50
2018-01-12T06:54:57.168Z,27.00
2018-01-12T06:57:26.218Z,28.95
2018-01-12T07:00:03.379Z,30.27
2018-01-12T07:02:32.413Z,24.47
2018-01-12T07:05:01.463Z,23.07
2018-01-12T07:07:30.503Z,27.33
2018-01-12T07:12:34.809Z,31.27
2018-01-12T07:15:20.734Z,27.23
2018-01-12T07:20:42.764Z,30.50
2018-01-12T07:23:48.555Z,32.27
2018-01-12T07:26:21.038Z,30.33
2018-01-12T07:28:50.081Z,22.90
2018-01-12T07:34:20.716Z,32.60
2018-01-12T07:39:25.008Z,33.95
2018-01-12T07:41:54.962Z,28.47
2018-01-12T07:44:25.317Z,32.30
2018-01-12T07:46:54.398Z,31.47
2018-01-12T07:49:23.451Z,33.33
2018-01-12T07:51:55.897Z,32.65
2018-01-12T07:54:24.961Z,30.27
2018-01-12T07:57:01.365Z,35.28
2018-01-12T07:59:39.271Z,30.50
2018-01-12T08:02:13.960Z,34.20
2018-01-12T08:04:43.001Z,30.47
2018-01-12T08:07:12.238Z,38.30
2018-01-12T08:09:51.983Z,35.07
2018-01-12T08:12:44.664Z,33.20
2018-01-12T08:15:19.918Z,33.50
2018-01-12T08:20:39.521Z,34.17
2018-01-12T08:23:14.099Z,27.07
2018-01-12T08:25:53.650Z,35.83
2018-01-12T08:28:32.595Z,29.50
2018-01-12T08:31:08.578Z,32.20
2018-01-12T08:33:42.615Z,33.20
2018-01-12T08:36:17.987Z,25.83
2018-01-12T08:38:52.940Z,28.73
2018-01-12T08:41:30.023Z,32.95
2018-01-12T08:44:04.560Z,28.43
2018-01-12T08:46:41.081Z,28.87
2018-01-12T08:49:17.054Z,25.33
2018-01-12T08:51:58.298Z,24.03
2018-01-12T08:57:12.963Z,25.98
2018-01-12T08:59:49.517Z,20.30
2018-01-12T09:02:40.661Z,22.60
2018-01-12T09:07:50.980Z,21.92
2018-01-12T09:13:03.579Z,25.58
2018-01-12T09:15:41.754Z,22.60
2018-01-12T09:18:32.862Z,21.53
2018-01-12T09:21:23.304Z,20.93
2018-01-12T09:24:03.835Z,23.10
2018-01-12T09:26:43.990Z,23.10
2018-01-12T09:29:23.727Z,20.90
2018-01-12T09:31:59.975Z,20.60
2018-01-12T09:40:55.912Z,22.13
2018-01-12T09:43:34.616Z,20.63
2018-01-12T09:48:51.148Z,20.55
2018-01-12T09:51:25.997Z,19.07
2018-01-12T09:53:56.697Z,23.40
2018-01-12T09:56:33.442Z,18.40
2018-01-12T09:59:04.058Z,22.23
2018-01-12T10:01:41.142Z,20.30
2018-01-12T10:04:10.195Z,18.57
2018-01-12T10:06:39.239Z,20.97
2018-01-12T10:09:08.347Z,24.12
2018-01-12T10:11:37.419Z,19.70
2018-01-12T10:14:06.526Z,21.25
2018-01-12T10:16:35.578Z,25.00
2018-01-12T10:19:04.613Z,20.80
2018-01-12T10:21:41.286Z,16.30
2018-01-12T10:24:10.362Z,27.13
2018-01-12T10:26:39.402Z,14.83
2018-01-12T10:29:08.473Z,18.90
2018-01-12T10:31:51.295Z,16.63
2018-01-12T10:34:44.677Z,14.63
2018-01-12T10:37:22.488Z,13.67
2018-01-12T10:40:02.292Z,15.00
2018-01-12T10:42:31.328Z,15.60
2018-01-12T10:45:00.396Z,15.23
2018-01-12T10:47:29.437Z,14.67
2018-01-12T10:52:58.372Z,14.57
2018-01-12T10:55:29.432Z,15.00
2018-01-12T10:58:06.199Z,15.23
2018-01-12T11:00:35.702Z,17.23
2018-01-12T11:03:04.733Z,16.00
2018-01-12T11:08:13.850Z,17.45
2018-01-12T11:10:42.997Z,18.93
2018-01-12T11:15:47.249Z,16.77
2018-01-12T11:18:16.603Z,15.33
2018-01-12T11:20:45.709Z,17.87
2018-01-12T11:23:15.677Z,15.13
2018-01-12T11:25:44.697Z,19.37
2018-01-12T11:28:13.801Z,14.50
2018-01-12T11:30:43.752Z,14.43
2018-01-12T11:33:12.784Z,13.97
2018-01-12T11:35:41.842Z,13.33
2018-01-12T11:38:12.890Z,16.07
2018-01-12T11:40:41.989Z,13.63
2018-01-12T11:45:46.337Z,15.40
2018-01-12T11:48:15.399Z,15.10
2018-01-12T11:50:44.447Z,15.30
2018-01-12T11:53:13.543Z,14.27
2018-01-12T11:55:42.615Z,18.20
2018-01-12T11:58:11.686Z,16.87
2018-01-12T12:00:44.107Z,17.50
2018-01-12T12:03:13.393Z,17.73
2018-01-12T12:05:42.499Z,17.23
2018-01-12T12:08:11.552Z,16.90
2018-01-12T12:10:40.607Z,19.30
2018-01-12T12:13:12.137Z,17.70
2018-01-12T12:15:41.269Z,17.75
2018-01-12T12:18:10.314Z,19.10
2018-01-12T12:20:39.365Z,15.33
2018-01-12T12:23:09.334Z,15.90
2018-01-12T12:25:38.398Z,18.00
2018-01-12T12:28:07.472Z,18.93
2018-01-12T12:30:36.522Z,17.00
2018-01-12T12:33:05.595Z,18.90
2018-01-12T12:35:34.654Z,17.20
2018-01-12T12:38:03.705Z,16.20
2018-01-12T12:40:36.290Z,16.07
2018-01-12T12:43:07.671Z,16.83
2018-01-12T12:45:36.745Z,18.10
2018-01-12T12:48:06.703Z,17.13
2018-01-12T12:50:35.811Z,16.67
2018-01-12T12:53:04.844Z,16.30
2018-01-12T12:58:09.089Z,19.73
2018-01-12T13:00:53.670Z,19.67
2018-01-12T13:03:23.289Z,18.43
2018-01-12T13:05:59.794Z,19.17
2018-01-12T13:08:29.093Z,18.87
2018-01-12T13:10:58.168Z,17.27
2018-01-12T13:13:27.200Z,16.57
2018-01-12T13:15:57.318Z,16.67
2018-01-12T13:18:26.369Z,17.70
2018-01-12T13:20:59.209Z,18.83
2018-01-12T13:26:03.552Z,22.87
2018-01-12T13:28:32.621Z,20.47
2018-01-12T13:31:03.651Z,25.93
2018-01-12T13:33:32.745Z,20.67
2018-01-12T13:36:04.201Z,21.83
2018-01-12T13:38:33.250Z,19.50
2018-01-12T13:43:44.602Z,22.23
2018-01-12T13:46:13.653Z,20.80
2018-01-12T13:48:44.736Z,21.80
2018-01-12T13:51:13.763Z,22.33
2018-01-12T13:56:18.011Z,20.53
2018-01-12T13:58:48.026Z,20.45
2018-01-12T14:01:17.086Z,22.53
2018-01-12T14:03:47.029Z,18.63
2018-01-12T14:06:16.443Z,21.97
2018-01-12T14:08:46.414Z,23.12
2018-01-12T14:11:15.478Z,21.47
2018-01-12T14:16:26.479Z,23.95
2018-01-12T14:18:56.441Z,21.53
2018-01-12T14:21:25.485Z,24.17
2018-01-12T14:24:00.305Z,28.67
2018-01-12T14:26:30.255Z,25.70
2018-01-12T14:28:59.294Z,21.30
2018-01-12T14:31:32.293Z,22.30
2018-01-12T14:34:03.337Z,23.83
2018-01-12T14:36:36.110Z,24.63
2018-01-12T14:39:06.139Z,25.60
2018-01-12T14:41:38.818Z,23.47
2018-01-12T14:44:07.857Z,28.90
2018-01-12T14:46:40.454Z,25.40
2018-01-12T14:49:09.494Z,24.23
2018-01-12T14:51:39.450Z,25.00
2018-01-12T14:54:08.503Z,24.17
2018-01-12T14:56:37.559Z,21.90
2018-01-12T14:59:07.534Z,26.00
2018-01-12T15:01:40.833Z,22.83
2018-01-12T15:04:09.917Z,23.67
2018-01-12T15:06:38.941Z,28.40
2018-01-12T15:09:07.999Z,23.27
2018-01-12T15:11:37.134Z,23.83
2018-01-12T15:14:07.173Z,27.25
2018-01-12T15:16:36.221Z,25.97
2018-01-12T15:19:06.319Z,27.17
2018-01-12T15:21:36.289Z,29.48
2018-01-12T15:24:08.677Z,31.90
2018-01-12T15:26:39.715Z,28.07
2018-01-12T15:29:09.032Z,30.37
2018-01-12T15:31:38.050Z,27.90
2018-01-12T15:36:43.809Z,34.25
2018-01-12T15:39:18.338Z,32.10
2018-01-12T15:41:47.389Z,28.90
2018-01-12T15:44:16.481Z,30.00
2018-01-12T15:46:45.527Z,29.60
2018-01-12T15:49:14.565Z,29.20
2018-01-12T15:51:47.390Z,31.97
2018-01-12T15:54:16.474Z,33.97
2018-01-12T15:56:45.497Z,34.30
2018-01-12T15:59:16.526Z,36.40
2018-01-12T16:01:45.577Z,32.50
2018-01-12T16:04:14.635Z,30.90
2018-01-12T16:06:43.674Z,34.07
2018-01-12T16:09:12.709Z,33.00
2018-01-12T16:11:41.771Z,32.43
2018-01-12T16:14:10.794Z,32.03
2018-01-12T16:16:39.902Z,36.13
2018-01-12T16:19:08.981Z,36.50
2018-01-12T16:21:38.009Z,33.90
2018-01-12T16:26:42.282Z,33.63
2018-01-12T16:29:11.326Z,35.10
2018-01-12T16:31:40.378Z,33.20
2018-01-12T16:34:11.353Z,37.30
2018-01-12T16:36:40.399Z,36.30
2018-01-12T16:39:17.244Z,36.75
2018-01-12T16:41:40.494Z,35.83
2018-01-12T16:44:09.536Z,36.77
2018-01-12T16:46:38.593Z,33.23
2018-01-12T16:49:07.640Z,39.97
2018-01-12T16:51:36.655Z,35.20
2018-01-12T16:54:06.648Z,35.37
2018-01-12T16:56:35.685Z,37.90
2018-01-12T17:01:39.901Z,41.35
2018-01-12T17:04:08.963Z,40.92
2018-01-12T17:06:38.026Z,34.40
2018-01-12T17:09:21.676Z,44.42
2018-01-12T17:14:29.665Z,44.90
2018-01-12T17:17:06.606Z,38.20
2018-01-12T17:19:35.670Z,39.17
2018-01-12T17:22:04.708Z,45.07
2018-01-12T17:24:33.754Z,41.83
2018-01-12T17:29:37.990Z,48.47
2018-01-12T17:32:07.051Z,41.35
2018-01-12T17:34:36.085Z,42.50
2018-01-12T17:39:40.314Z,43.38
2018-01-12T17:42:10.317Z,43.10
2018-01-12T17:44:40.270Z,43.33
2018-01-12T17:47:10.249Z,39.00
2018-01-12T17:49:40.185Z,39.07
2018-01-12T17:52:12.433Z,44.60
2018-01-12T17:54:41.478Z,39.77
2018-01-12T17:57:25.945Z,40.20
2018-01-12T17:59:54.996Z,41.10
2018-01-12T18:02:29.719Z,42.60
2018-01-12T18:05:02.515Z,35.83
2018-01-12T18:07:31.562Z,38.60
2018-01-12T18:10:00.618Z,40.57
2018-01-12T18:12:29.733Z,42.65
2018-01-12T18:15:02.869Z,35.50
2018-01-12T18:17:32.105Z,37.80
2018-01-12T18:20:06.287Z,37.70
2018-01-12T18:22:35.323Z,36.87
2018-01-12T18:25:06.328Z,35.20
2018-01-12T18:27:35.381Z,35.70
2018-01-12T18:32:39.611Z,40.95
2018-01-12T18:35:08.729Z,35.83
2018-01-12T18:37:37.773Z,32.73
2018-01-12T18:40:07.797Z,29.30
2018-01-12T18:42:36.858Z,33.00
2018-01-12T18:47:42.086Z,33.50
2018-01-12T18:50:11.129Z,31.23
2018-01-12T18:52:40.301Z,33.67
2018-01-12T18:55:09.353Z,31.83
2018-01-12T18:57:38.410Z,34.53
2018-01-12T19:00:15.040Z,33.47
2018-01-12T19:02:44.053Z,35.00
2018-01-12T19:05:14.032Z,31.70
2018-01-12T19:07:43.065Z,35.60
2018-01-12T19:10:12.110Z,31.80
2018-01-12T19:12:41.222Z,31.07
2018-01-12T19:15:10.278Z,35.53
2018-01-12T19:17:40.063Z,32.37
2018-01-12T19:20:10.084Z,29.20
2018-01-12T19:22:40.337Z,28.90
2018-01-12T19:27:44.516Z,31.77
2018-01-12T19:32:48.784Z,32.92
2018-01-12T19:35:21.645Z,31.10
2018-01-12T19:37:50.685Z,28.33
2018-01-12T19:40:25.891Z,31.70
2018-01-12T19:45:39.211Z,32.37
2018-01-12T19:50:43.807Z,35.10
2018-01-12T19:53:13.818Z,31.03
2018-01-12T19:55:42.860Z,26.53
2018-01-12T19:58:13.848Z,26.60
2018-01-12T20:00:42.922Z,30.50
2018-01-12T20:03:12.035Z,27.67
2018-01-12T20:05:41.072Z,29.08
2018-01-12T20:08:22.235Z,29.27
2018-01-12T20:10:51.300Z,32.53
2018-01-12T20:15:55.607Z,31.83
2018-01-12T20:18:24.673Z,25.00
2018-01-12T20:20:53.721Z,26.87
2018-01-12T20:23:25.003Z,31.50
2018-01-12T20:25:54.034Z,29.40
2018-01-12T20:28:24.129Z,29.50
2018-01-12T20:30:53.231Z,28.97
2018-01-12T20:33:24.174Z,28.07
2018-01-12T20:35:55.757Z,29.50
2018-01-12T20:38:25.668Z,26.70
2018-01-12T20:40:54.714Z,23.60
2018-01-12T20:43:23.767Z,27.87
2018-01-12T20:45:52.824Z,27.05
2018-01-12T20:48:21.876Z,25.50
2018-01-12T20:50:50.917Z,29.17
2018-01-12T20:53:19.970Z,28.63
2018-01-12T20:55:49.005Z,35.43
2018-01-12T20:58:18.051Z,35.10
2018-01-12T21:00:47.095Z,37.03
2018-01-12T21:05:58.104Z,38.72
2018-01-12T21:08:29.173Z,32.70
2018-01-12T21:10:58.212Z,30.87
2018-01-12T21:13:27.229Z,29.87
2018-01-12T21:15:56.368Z,28.83
2018-01-12T21:18:25.498Z,30.37
2018-01-12T21:20:55.434Z,27.93
2018-01-12T21:23:26.435Z,31.03
2018-01-12T21:25:55.470Z,30.63
2018-01-12T21:28:25.491Z,35.40
2018-01-12T21:30:54.554Z,35.70
2018-01-12T21:33:23.622Z,37.33
2018-01-12T21:38:38.150Z,39.95
2018-01-12T21:41:07.301Z,42.40
2018-01-12T21:46:11.656Z,42.60
2018-01-12T21:48:40.770Z,37.60
2018-01-12T21:51:09.876Z,38.23
2018-01-12T21:53:39.907Z,28.50
2018-01-12T21:56:13.139Z,32.60
2018-01-12T22:01:18.914Z,28.17
2018-01-12T22:03:50.054Z,25.43
2018-01-12T22:06:19.119Z,29.85
2018-01-12T22:08:52.093Z,31.52
2018-01-12T22:11:22.318Z,27.97
2018-01-12T22:13:51.507Z,29.00
2018-01-12T22:16:20.578Z,30.30
2018-01-12T22:21:29.884Z,31.37
2018-01-12T22:24:03.530Z,29.63
2018-01-12T22:29:15.764Z,26.95
2018-01-12T22:31:44.776Z,27.53
2018-01-12T22:34:13.825Z,28.15
2018-01-12T22:36:42.869Z,22.63
2018-01-12T22:39:11.912Z,29.60
2018-01-12T22:41:42.005Z,26.17
2018-01-12T22:44:12.049Z,26.40
2018-01-12T22:46:41.090Z,26.73
2018-01-12T22:49:10.205Z,28.00
2018-01-12T22:51:40.154Z,23.80
2018-01-12T22:54:09.210Z,31.20
2018-01-12T22:56:38.341Z,31.37
2018-01-12T22:59:10.552Z,32.73
2018-01-12T23:01:39.648Z,31.93
2018-01-12T23:06:43.939Z,35.65
2018-01-12T23:11:51.429Z,30.52
2018-01-12T23:16:55.774Z,28.38
2018-01-12T23:19:24.852Z,29.67
2018-01-12T23:22:02.736Z,32.60
2018-01-12T23:24:31.798Z,28.70
2018-01-12T23:27:00.926Z,30.63
2018-01-12T23:29:29.960Z,28.60
2018-01-12T23:31:59.004Z,26.77
2018-01-12T23:34:28.147Z,30.50
2018-01-12T23:37:01.172Z,30.73
2018-01-12T23:39:30.201Z,27.60
2018-01-12T23:42:00.649Z,29.97
2018-01-12T23:44:30.039Z,25.37
2018-01-12T23:47:03.186Z,26.60
2018-01-12T23:49:32.234Z,28.43
2018-01-12T23:52:13.450Z,32.00
2018-01-12T23:57:19.654Z,29.23
2018-01-12T23:59:48.733Z,25.73
